Time;durP1;ratioP1;P1;durP2;ratioP2;P2;SDS_P1;SDS_P2;PMS_P1;PMS_P2;Temp;Humidity;BMP_temperature;BMP_pressure;BME280_temperature;BME280_humidity;BME280_pressure;Samples;Min_cycle;Max_cycle;Signal;HPM_P1;HPM_P2
2021/10/20 00:01:53;;;;;;;24.25;16.55;;;16.30;89.60;;;;;;5037978;28;20568;-85
2021/10/20 00:04:19;;;;;;;36.15;14.73;;;16.30;89.70;;;;;;5056157;28;20196;-84
2021/10/20 00:06:45;;;;;;;20.17;15.52;;;16.20;89.90;;;;;;5037662;28;20178;-84
2021/10/20 00:09:11;;;;;;;20.23;16.30;;;16.30;89.80;;;;;;5037727;28;20179;-84
2021/10/20 00:11:37;;;;;;;21.88;17.10;;;16.20;89.90;;;;;;5055695;28;20494;-85
2021/10/20 00:14:04;;;;;;;26.45;18.17;;;16.20;89.90;;;;;;5037680;28;20226;-84
2021/10/20 00:16:29;;;;;;;18.88;12.63;;;16.30;89.60;;;;;;5055556;28;20179;-84
2021/10/20 00:18:56;;;;;;;22.55;17.80;;;16.30;89.50;;;;;;5037535;28;20195;-84
2021/10/20 00:21:28;;;;;;;23.27;12.73;;;16.30;89.60;;;;;;5038119;28;20172;-85
2021/10/20 00:23:54;;;;;;;29.75;18.38;;;16.30;89.50;;;;;;5057193;28;20159;-84
2021/10/20 00:26:21;;;;;;;21.65;14.80;;;16.40;89.00;;;;;;5057512;28;20164;-85
2021/10/20 00:28:47;;;;;;;21.88;16.58;;;16.30;89.10;;;;;;5040517;28;20254;-84
2021/10/20 00:31:13;;;;;;;21.80;15.25;;;16.30;89.30;;;;;;5057540;28;20168;-84
2021/10/20 00:33:38;;;;;;;24.90;17.23;;;16.30;89.40;;;;;;5055886;28;20168;-85
2021/10/20 00:36:04;;;;;;;25.85;16.05;;;16.30;89.50;;;;;;5057001;28;20534;-86
2021/10/20 00:38:30;;;;;;;20.45;15.88;;;16.20;89.50;;;;;;5057314;28;20703;-84
2021/10/20 00:40:56;;;;;;;22.60;15.20;;;16.20;89.50;;;;;;5055222;28;20169;-85
2021/10/20 00:43:22;;;;;;;26.52;17.13;;;16.20;89.50;;;;;;5037177;28;20286;-84
2021/10/20 00:45:48;;;;;;;27.48;18.33;;;16.20;89.40;;;;;;5055335;28;20260;-84
2021/10/20 00:48:14;;;;;;;26.55;16.50;;;16.20;89.30;;;;;;5054930;28;20269;-84
2021/10/20 00:50:40;;;;;;;21.30;16.25;;;16.20;89.30;;;;;;5055150;28;20172;-84
2021/10/20 00:53:06;;;;;;;23.63;16.45;;;16.30;89.00;;;;;;5037228;28;20207;-84
2021/10/20 00:55:32;;;;;;;18.63;14.48;;;16.20;89.10;;;;;;5037099;28;20187;-84
2021/10/20 00:57:58;;;;;;;20.92;15.77;;;16.20;89.00;;;;;;5054723;28;20674;-84
2021/10/20 01:00:23;;;;;;;20.38;15.32;;;16.20;89.00;;;;;;5054872;28;20176;-84
2021/10/20 01:02:49;;;;;;;21.88;16.08;;;16.20;89.10;;;;;;5054733;28;20192;-84
2021/10/20 01:05:15;;;;;;;23.55;17.00;;;16.20;89.10;;;;;;5036710;28;20168;-84
2021/10/20 01:07:41;;;;;;;21.02;16.52;;;16.20;89.20;;;;;;5053900;28;20192;-84
2021/10/20 01:10:09;;;;;;;22.33;15.25;;;16.10;89.30;;;;;;5054465;28;20530;-84
2021/10/20 01:12:36;;;;;;;21.35;16.38;;;16.10;89.10;;;;;;5036611;28;20711;-84
2021/10/20 01:15:10;;;;;;;20.40;16.30;;;16.10;89.10;;;;;;5036450;28;20271;-83
2021/10/20 01:17:36;;;;;;;26.05;17.05;;;16.20;89.00;;;;;;5077759;22;20233;-92
2021/10/20 01:20:05;;;;;;;21.83;15.70;;;16.10;89.10;;;;;;5037304;28;20599;-93
2021/10/20 01:22:31;;;;;;;18.92;14.48;;;16.10;88.90;;;;;;5036966;28;20291;-92
2021/10/20 01:24:58;;;;;;;18.38;13.55;;;16.00;88.80;;;;;;5036995;28;20176;-92
2021/10/20 01:27:24;;;;;;;18.73;15.13;;;16.00;89.00;;;;;;5036933;28;20219;-92
2021/10/20 01:29:50;;;;;;;32.15;16.85;;;15.90;89.00;;;;;;5036817;28;20183;-92
2021/10/20 01:32:15;;;;;;;20.65;15.48;;;15.90;89.10;;;;;;5036638;28;20184;-92
2021/10/20 01:34:41;;;;;;;21.30;14.00;;;15.90;89.10;;;;;;5036700;28;20175;-93
2021/10/20 01:37:08;;;;;;;23.42;14.77;;;15.80;89.10;;;;;;5036676;28;20320;-92
2021/10/20 01:39:34;;;;;;;16.88;14.23;;;15.80;89.20;;;;;;5036501;28;20223;-92
2021/10/20 01:42:00;;;;;;;16.90;15.10;;;15.80;89.10;;;;;;5054316;28;20191;-92
2021/10/20 01:44:26;;;;;;;19.55;15.02;;;15.70;89.20;;;;;;5036581;28;20175;-92
2021/10/20 01:46:52;;;;;;;21.65;16.50;;;15.70;89.20;;;;;;5036586;28;20168;-92
2021/10/20 01:49:17;;;;;;;24.52;15.63;;;15.70;89.00;;;;;;5036998;28;20197;-92
2021/10/20 01:51:43;;;;;;;21.33;16.03;;;15.70;88.90;;;;;;5036359;28;20535;-92
2021/10/20 01:54:09;;;;;;;19.77;14.97;;;15.60;89.10;;;;;;5036446;28;20268;-92
2021/10/20 01:56:35;;;;;;;21.10;15.65;;;15.70;88.90;;;;;;5036628;28;20172;-92
2021/10/20 01:59:01;;;;;;;25.43;15.97;;;15.60;89.00;;;;;;5036274;28;20192;-92
2021/10/20 02:01:27;;;;;;;21.00;16.05;;;15.60;89.30;;;;;;5036092;28;20190;-93
2021/10/20 02:03:53;;;;;;;30.80;16.27;;;15.60;89.00;;;;;;5036909;28;20262;-92
2021/10/20 02:06:19;;;;;;;21.43;14.80;;;15.50;89.10;;;;;;5036173;28;20182;-92
2021/10/20 02:08:48;;;;;;;20.63;15.30;;;15.60;88.80;;;;;;5036222;28;20202;-92
2021/10/20 02:11:15;;;;;;;20.75;14.88;;;15.50;89.10;;;;;;5036087;28;20203;-93
2021/10/20 02:13:41;;;;;;;22.20;16.10;;;15.40;89.10;;;;;;5036104;28;20247;-92
2021/10/20 02:16:07;;;;;;;21.43;14.20;;;15.40;89.10;;;;;;5036112;28;20172;-92
2021/10/20 02:18:33;;;;;;;20.30;14.80;;;15.50;88.90;;;;;;5035637;28;20345;-92
2021/10/20 02:20:59;;;;;;;22.00;16.00;;;15.40;89.10;;;;;;5035966;28;20202;-92
2021/10/20 02:23:25;;;;;;;18.13;14.57;;;15.40;89.10;;;;;;5035854;28;20196;-92
2021/10/20 02:25:51;;;;;;;16.83;14.17;;;15.40;88.90;;;;;;5035731;28;20191;-92
2021/10/20 02:28:16;;;;;;;24.03;14.63;;;15.40;88.90;;;;;;5035769;28;20195;-92
2021/10/20 02:30:42;;;;;;;20.13;14.70;;;15.40;88.90;;;;;;5035688;28;20168;-92
2021/10/20 02:33:09;;;;;;;16.67;13.47;;;15.40;88.90;;;;;;5035605;28;20186;-92
2021/10/20 02:35:35;;;;;;;15.80;12.07;;;15.40;88.90;;;;;;5035651;28;20667;-92
2021/10/20 02:38:01;;;;;;;20.00;14.53;;;15.40;88.80;;;;;;5035769;28;20196;-92
2021/10/20 02:40:27;;;;;;;13.63;10.80;;;15.50;88.40;;;;;;5035564;28;20175;-92
2021/10/20 02:42:53;;;;;;;17.57;12.80;;;15.50;88.40;;;;;;5035582;28;20243;-92
2021/10/20 02:45:19;;;;;;;20.17;11.80;;;15.40;88.40;;;;;;5035528;28;20168;-92
2021/10/20 02:47:45;;;;;;;20.73;13.50;;;15.40;88.50;;;;;;5035485;28;20192;-92
2021/10/20 02:50:11;;;;;;;20.30;12.20;;;15.30;88.70;;;;;;5035580;28;20234;-92
2021/10/20 02:52:37;;;;;;;19.53;13.00;;;15.30;88.80;;;;;;5035427;28;20667;-92
2021/10/20 02:55:05;;;;;;;16.17;11.00;;;15.30;88.60;;;;;;5035382;28;20175;-92
2021/10/20 02:57:31;;;;;;;17.17;11.97;;;15.40;88.50;;;;;;5035463;28;20196;-92
2021/10/20 02:59:57;;;;;;;20.47;12.47;;;15.40;88.30;;;;;;5035536;28;20176;-92
2021/10/20 03:02:24;;;;;;;17.17;12.30;;;15.40;88.30;;;;;;5035504;28;20203;-92
2021/10/20 03:04:50;;;;;;;15.13;12.53;;;15.40;88.10;;;;;;5035531;28;20171;-92
2021/10/20 03:07:16;;;;;;;18.73;12.37;;;15.40;88.30;;;;;;5035349;28;20176;-92
2021/10/20 03:09:41;;;;;;;16.23;13.03;;;15.50;88.30;;;;;;5035378;28;20176;-93
2021/10/20 03:12:07;;;;;;;17.57;11.63;;;15.40;88.20;;;;;;5053099;28;20575;-92
2021/10/20 03:14:33;;;;;;;15.13;11.50;;;15.40;88.10;;;;;;5035500;28;20563;-93
2021/10/20 03:16:58;;;;;;;15.57;10.40;;;15.40;88.00;;;;;;5035193;28;20278;-92
2021/10/20 03:19:24;;;;;;;16.00;11.40;;;15.40;87.90;;;;;;5035262;28;20302;-92
2021/10/20 03:21:50;;;;;;;15.00;11.70;;;15.30;87.90;;;;;;5035249;28;20200;-92
2021/10/20 03:24:15;;;;;;;14.80;11.07;;;15.30;88.00;;;;;;5035215;28;20173;-92
2021/10/20 03:26:41;;;;;;;14.00;11.07;;;15.30;87.80;;;;;;5035182;28;20176;-92
2021/10/20 03:29:07;;;;;;;14.23;11.57;;;15.20;87.90;;;;;;5035426;28;20798;-92
2021/10/20 03:31:32;;;;;;;15.37;10.60;;;15.20;88.00;;;;;;5038830;28;20180;-92
2021/10/20 03:33:58;;;;;;;15.83;11.33;;;15.20;87.60;;;;;;5038796;28;20310;-92
2021/10/20 03:36:24;;;;;;;12.37;10.27;;;15.20;87.40;;;;;;5038642;28;20199;-92
2021/10/20 03:38:50;;;;;;;14.43;10.83;;;15.20;87.40;;;;;;5038543;28;20293;-92
2021/10/20 03:41:16;;;;;;;12.97;9.43;;;15.20;87.30;;;;;;5039246;28;20180;-92
2021/10/20 03:43:42;;;;;;;12.07;9.30;;;15.20;87.30;;;;;;5038610;28;20644;-92
2021/10/20 03:46:08;;;;;;;11.63;10.07;;;15.20;87.20;;;;;;5039653;28;20176;-92
2021/10/20 03:48:34;;;;;;;13.77;8.30;;;15.10;87.40;;;;;;5038714;28;20204;-92
2021/10/20 03:51:00;;;;;;;11.63;8.50;;;15.20;86.90;;;;;;5038420;28;20766;-92
2021/10/20 03:53:26;;;;;;;14.87;9.37;;;15.10;87.10;;;;;;5038390;28;20267;-92
2021/10/20 03:55:51;;;;;;;12.20;8.33;;;15.00;87.10;;;;;;5038345;28;20204;-92
2021/10/20 03:58:21;;;;;;;13.07;9.47;;;15.00;87.10;;;;;;5038248;28;20203;-92
2021/10/20 04:00:47;;;;;;;12.30;8.00;;;15.00;87.10;;;;;;5038713;28;20546;-92
2021/10/20 04:03:12;;;;;;;12.83;8.77;;;15.00;86.80;;;;;;5038058;28;20203;-92
2021/10/20 04:05:38;;;;;;;14.57;9.23;;;15.00;87.00;;;;;;5038203;28;20175;-92
2021/10/20 04:08:04;;;;;;;10.33;7.80;;;14.90;87.20;;;;;;5038150;28;20188;-92
2021/10/20 04:10:29;;;;;;;11.20;8.40;;;14.90;87.10;;;;;;5038132;28;20672;-92
2021/10/20 04:12:56;;;;;;;12.97;8.90;;;14.90;87.20;;;;;;5038907;28;20290;-92
2021/10/20 04:15:24;;;;;;;9.93;8.80;;;14.80;86.90;;;;;;5038042;28;20176;-92
2021/10/20 04:17:50;;;;;;;14.63;8.30;;;14.80;87.20;;;;;;5037836;28;20227;-92
2021/10/20 04:20:18;;;;;;;13.63;8.37;;;14.80;87.00;;;;;;5037939;28;20547;-93
2021/10/20 04:22:45;;;;;;;10.43;7.40;;;14.80;86.70;;;;;;5037756;28;20211;-92
2021/10/20 04:25:11;;;;;;;13.77;7.77;;;14.80;86.60;;;;;;5037725;28;20178;-92
2021/10/20 04:27:38;;;;;;;11.20;7.87;;;14.70;86.80;;;;;;5037686;28;20192;-92
2021/10/20 04:30:09;;;;;;;14.60;9.17;;;14.70;86.80;;;;;;5038634;28;20172;-92
2021/10/20 04:32:35;;;;;;;12.47;8.10;;;14.70;86.50;;;;;;5037638;28;20176;-92
2021/10/20 04:35:01;;;;;;;8.17;6.60;;;14.70;86.60;;;;;;5055498;28;20179;-92
2021/10/20 04:37:27;;;;;;;12.00;7.27;;;14.70;86.30;;;;;;5037477;28;20222;-92
2021/10/20 04:39:56;;;;;;;10.33;8.40;;;14.80;86.00;;;;;;5037669;28;20179;-92
2021/10/20 04:42:23;;;;;;;10.57;7.57;;;14.70;86.00;;;;;;5036313;28;20207;-92
2021/10/20 04:44:49;;;;;;;9.90;7.30;;;14.70;86.00;;;;;;5037432;28;20341;-92
2021/10/20 04:47:15;;;;;;;9.43;7.70;;;14.80;85.60;;;;;;5037486;28;20679;-92
2021/10/20 04:49:42;;;;;;;13.03;8.60;;;14.70;85.60;;;;;;5037311;28;20314;-92
2021/10/20 04:52:07;;;;;;;8.57;7.30;;;14.70;85.70;;;;;;5037141;28;20179;-92
2021/10/20 04:54:33;;;;;;;9.23;7.03;;;14.70;85.60;;;;;;5037312;28;20183;-92
2021/10/20 04:56:59;;;;;;;10.90;7.53;;;14.80;85.30;;;;;;5037316;28;20213;-92
2021/10/20 04:59:27;;;;;;;12.77;7.80;;;14.70;85.50;;;;;;5037005;28;20203;-92
2021/10/20 05:01:53;;;;;;;11.77;7.17;;;14.80;85.30;;;;;;5037667;28;20204;-92
2021/10/20 05:04:19;;;;;;;8.07;6.97;;;14.80;85.20;;;;;;5037801;28;20183;-92
2021/10/20 05:06:44;;;;;;;11.90;5.50;;;14.80;85.20;;;;;;5037051;28;20675;-92
2021/10/20 05:09:10;;;;;;;14.47;8.63;;;14.70;84.90;;;;;;5036966;28;20223;-92
2021/10/20 05:11:36;;;;;;;10.80;7.37;;;14.70;85.30;;;;;;5036897;28;20183;-92
2021/10/20 05:14:01;;;;;;;8.30;7.37;;;14.70;85.20;;;;;;5036988;28;20183;-92
2021/10/20 05:16:27;;;;;;;8.03;6.60;;;14.60;85.40;;;;;;5036841;28;20194;-92
2021/10/20 05:18:53;;;;;;;10.67;7.83;;;14.60;85.30;;;;;;5036635;28;20212;-91
2021/10/20 05:21:18;;;;;;;12.00;7.67;;;14.60;85.20;;;;;;5036559;28;20284;-92
2021/10/20 05:23:49;;;;;;;10.03;7.90;;;14.70;84.90;;;;;;5036615;28;20178;-92
2021/10/20 05:26:15;;;;;;;8.87;7.20;;;14.60;85.10;;;;;;5036865;28;20193;-92
2021/10/20 05:28:41;;;;;;;7.50;6.30;;;14.60;85.00;;;;;;5054400;28;20187;-92
2021/10/20 05:31:07;;;;;;;9.77;6.97;;;14.60;84.70;;;;;;5036628;28;20180;-92
2021/10/20 05:33:32;;;;;;;11.40;8.07;;;14.70;84.60;;;;;;5036553;28;20175;-92
2021/10/20 05:35:58;;;;;;;10.60;8.03;;;14.70;84.50;;;;;;5036451;28;20176;-92
2021/10/20 05:38:24;;;;;;;8.97;7.90;;;14.70;84.40;;;;;;5036309;28;20286;-92
2021/10/20 05:40:49;;;;;;;9.60;7.70;;;14.60;84.70;;;;;;5036410;28;20176;-92
2021/10/20 05:43:15;;;;;;;8.90;6.87;;;14.60;84.50;;;;;;5036311;28;20269;-91
2021/10/20 05:45:41;;;;;;;8.27;7.40;;;14.70;84.40;;;;;;5054057;28;20567;-91
2021/10/20 05:48:06;;;;;;;11.97;7.00;;;14.70;84.30;;;;;;5036276;28;20291;-92
2021/10/20 05:50:32;;;;;;;10.07;7.47;;;14.50;84.90;;;;;;5036193;28;20176;-91
2021/10/20 05:52:57;;;;;;;10.60;8.03;;;14.60;84.70;;;;;;5035817;28;20230;-92
2021/10/20 05:55:23;;;;;;;9.47;7.70;;;14.60;84.80;;;;;;5036081;28;20184;-92
2021/10/20 05:57:49;;;;;;;13.20;8.43;;;14.60;84.70;;;;;;5035970;28;20282;-92
2021/10/20 06:00:15;;;;;;;10.30;6.97;;;14.50;84.90;;;;;;5036041;28;20189;-91
2021/10/20 06:02:41;;;;;;;13.70;7.63;;;14.50;84.70;;;;;;5035929;28;20211;-92
2021/10/20 06:05:08;;;;;;;9.10;7.17;;;14.60;84.30;;;;;;5036001;28;20233;-92
2021/10/20 06:07:38;;;;;;;8.83;7.70;;;14.60;84.50;;;;;;5053605;28;20200;-92
2021/10/20 06:10:05;;;;;;;8.77;7.20;;;14.60;84.40;;;;;;5035834;28;20175;-92
2021/10/20 06:12:30;;;;;;;12.47;7.43;;;14.50;84.70;;;;;;5035719;28;20183;-92
2021/10/20 06:14:56;;;;;;;11.53;7.67;;;14.60;84.70;;;;;;5035817;28;20184;-91
2021/10/20 06:17:22;;;;;;;13.23;9.10;;;14.60;84.50;;;;;;5035525;28;20203;-92
2021/10/20 06:19:48;;;;;;;10.83;6.77;;;14.60;84.30;;;;;;5035747;28;20210;-91
2021/10/20 06:22:15;;;;;;;13.17;7.97;;;14.60;84.30;;;;;;5036422;28;20294;-91
2021/10/20 06:24:41;;;;;;;10.80;8.23;;;14.60;84.30;;;;;;5035698;28;20633;-91
2021/10/20 06:27:07;;;;;;;9.53;7.93;;;14.70;84.10;;;;;;5035868;28;20218;-91
2021/10/20 06:29:33;;;;;;;11.20;6.80;;;14.70;83.90;;;;;;5035636;28;20180;-91
2021/10/20 06:31:59;;;;;;;10.63;7.60;;;14.70;83.80;;;;;;5035566;28;20180;-91
2021/10/20 06:34:25;;;;;;;11.53;7.90;;;14.70;83.80;;;;;;5035448;28;20187;-92
2021/10/20 06:36:50;;;;;;;7.90;7.10;;;14.70;83.90;;;;;;5035490;28;20176;-92
2021/10/20 06:39:20;;;;;;;9.83;6.00;;;14.70;83.90;;;;;;5035391;28;20675;-92
2021/10/20 06:41:50;;;;;;;9.87;6.13;;;14.70;83.70;;;;;;5035599;28;20203;-92
2021/10/20 06:44:16;;;;;;;10.40;7.47;;;14.60;83.90;;;;;;5035467;28;20179;-91
2021/10/20 06:46:42;;;;;;;10.60;6.60;;;14.60;83.90;;;;;;5035793;28;20265;-91
2021/10/20 06:49:08;;;;;;;8.70;6.17;;;14.70;83.50;;;;;;5035369;28;20664;-91
2021/10/20 06:51:33;;;;;;;8.53;7.37;;;14.70;83.30;;;;;;5053168;28;20184;-92
2021/10/20 06:53:59;;;;;;;15.27;6.87;;;14.70;83.70;;;;;;5035311;28;20186;-91
2021/10/20 06:56:25;;;;;;;10.83;6.37;;;14.80;83.40;;;;;;5035366;28;20175;-91
2021/10/20 06:58:51;;;;;;;7.30;5.93;;;14.80;83.10;;;;;;5035156;28;20223;-91
2021/10/20 07:01:17;;;;;;;13.17;7.37;;;14.90;82.70;;;;;;5035196;28;20176;-91
2021/10/20 07:03:44;;;;;;;9.27;6.30;;;14.90;82.60;;;;;;5035169;28;20261;-91
2021/10/20 07:06:10;;;;;;;10.17;6.80;;;14.80;82.90;;;;;;5056867;28;20172;-91
2021/10/20 07:08:36;;;;;;;12.20;6.80;;;14.80;82.80;;;;;;5039085;28;20192;-91
2021/10/20 07:11:02;;;;;;;10.30;6.70;;;14.90;82.30;;;;;;5039225;28;20194;-91
2021/10/20 07:13:28;;;;;;;10.80;8.13;;;15.00;82.10;;;;;;5039002;28;20652;-91
2021/10/20 07:15:54;;;;;;;11.20;7.70;;;15.00;82.40;;;;;;5056842;28;20222;-91
2021/10/20 07:18:21;;;;;;;12.27;7.77;;;14.90;82.60;;;;;;5089089;23;20224;-83
2021/10/20 07:20:47;;;;;;;10.33;6.57;;;14.90;82.80;;;;;;5036982;28;20256;-84
2021/10/20 07:23:13;;;;;;;11.70;7.30;;;15.00;81.90;;;;;;5019459;28;20351;-83
2021/10/20 07:25:39;;;;;;;9.77;6.87;;;14.90;82.30;;;;;;5019828;28;20177;-83
2021/10/20 07:28:05;;;;;;;11.50;7.17;;;15.00;82.50;;;;;;5036808;28;20191;-83
2021/10/20 07:30:30;;;;;;;11.17;8.70;;;14.90;82.50;;;;;;5036847;28;20169;-84
2021/10/20 07:32:56;;;;;;;10.90;7.57;;;14.90;82.60;;;;;;5036910;28;20177;-84
2021/10/20 07:35:22;;;;;;;13.07;7.67;;;15.10;81.70;;;;;;5036958;28;20180;-83
2021/10/20 07:37:48;;;;;;;14.03;8.17;;;15.10;81.90;;;;;;5036815;28;20267;-85
2021/10/20 07:40:15;;;;;;;13.07;8.43;;;15.10;81.90;;;;;;5036801;28;20245;-83
2021/10/20 07:42:44;;;;;;;11.30;7.90;;;15.00;82.10;;;;;;5018805;28;20327;-86
2021/10/20 07:45:14;;;;;;;18.93;9.20;;;15.10;82.30;;;;;;5018763;28;20601;-85
2021/10/20 07:47:40;;;;;;;12.13;8.13;;;15.10;82.00;;;;;;5018960;28;20175;-84
2021/10/20 07:50:06;;;;;;;12.93;7.70;;;15.10;81.70;;;;;;5018431;28;20181;-85
2021/10/20 07:52:33;;;;;;;10.23;8.33;;;15.20;81.60;;;;;;5018454;28;20226;-84
2021/10/20 07:55:00;;;;;;;11.33;9.30;;;15.20;81.80;;;;;;5018922;28;20181;-83
2021/10/20 07:57:25;;;;;;;10.50;6.80;;;15.20;81.50;;;;;;5036508;28;20707;-83
2021/10/20 07:59:52;;;;;;;12.27;7.83;;;15.30;81.00;;;;;;5036757;28;20181;-83
2021/10/20 08:02:18;;;;;;;14.87;10.07;;;15.30;81.00;;;;;;5018802;28;20200;-83
2021/10/20 08:04:44;;;;;;;16.33;10.53;;;15.30;81.00;;;;;;5018959;28;20640;-83
2021/10/20 08:07:09;;;;;;;15.70;10.37;;;15.30;81.30;;;;;;5018605;28;20183;-84
2021/10/20 08:09:35;;;;;;;12.37;8.77;;;15.30;81.30;;;;;;5018535;28;20196;-83
2021/10/20 08:12:00;;;;;;;11.50;9.47;;;15.30;81.50;;;;;;5036640;28;20211;-84
2021/10/20 08:14:27;;;;;;;14.77;9.80;;;15.30;81.20;;;;;;5035812;28;20642;-83
2021/10/20 08:16:53;;;;;;;15.73;8.93;;;15.40;81.40;;;;;;5035851;28;20195;-84
2021/10/20 08:19:19;;;;;;;17.50;8.43;;;15.40;81.20;;;;;;5018031;28;20681;-84
2021/10/20 08:21:45;;;;;;;10.60;8.23;;;15.50;80.60;;;;;;5035982;28;20291;-84
2021/10/20 08:24:11;;;;;;;13.23;9.53;;;15.60;80.50;;;;;;5036084;28;20169;-83
2021/10/20 08:26:37;;;;;;;11.38;9.80;;;15.70;80.30;;;;;;5035915;28;20180;-85
2021/10/20 08:29:02;;;;;;;15.60;9.43;;;15.70;79.80;;;;;;5017981;28;20284;-84
2021/10/20 08:31:28;;;;;;;13.63;10.88;;;15.70;80.00;;;;;;5035785;28;20173;-85
2021/10/20 08:33:54;;;;;;;12.27;9.80;;;15.70;80.30;;;;;;5035803;28;20179;-85
2021/10/20 08:36:20;;;;;;;16.10;9.55;;;15.80;80.20;;;;;;5036171;28;20164;-84
2021/10/20 08:38:46;;;;;;;15.60;10.20;;;16.00;79.50;;;;;;5036076;28;20592;-85
2021/10/20 08:41:12;;;;;;;12.85;8.50;;;16.00;79.30;;;;;;5035803;28;20169;-83
2021/10/20 08:43:38;;;;;;;16.77;10.80;;;16.00;79.60;;;;;;5017530;28;20702;-83
2021/10/20 08:46:04;;;;;;;14.88;9.05;;;16.00;79.00;;;;;;5017868;28;20169;-82
2021/10/20 08:48:31;;;;;;;12.43;8.98;;;16.00;79.30;;;;;;5035689;28;20569;-83
2021/10/20 08:51:00;;;;;;;13.63;8.55;;;16.00;79.10;;;;;;5017394;28;20176;-86
2021/10/20 08:53:27;;;;;;;19.85;11.43;;;16.10;78.80;;;;;;5035750;28;20546;-86
2021/10/20 08:55:53;;;;;;;15.73;11.05;;;16.20;79.40;;;;;;5017836;28;20180;-87
2021/10/20 08:58:20;;;;;;;13.75;9.07;;;16.20;79.50;;;;;;5035654;28;20224;-87
2021/10/20 09:00:45;;;;;;;15.50;9.93;;;16.30;78.80;;;;;;5035520;28;20251;-87
2021/10/20 09:03:12;;;;;;;12.38;10.20;;;16.60;78.40;;;;;;5017994;28;20272;-86
2021/10/20 09:05:38;;;;;;;16.15;9.82;;;16.60;78.40;;;;;;5035457;28;20665;-86
2021/10/20 09:08:05;;;;;;;14.18;9.32;;;16.50;78.30;;;;;;5017564;28;20215;-89
2021/10/20 09:10:31;;;;;;;17.08;11.40;;;16.50;78.40;;;;;;5035109;28;20248;-87
2021/10/20 09:12:58;;;;;;;13.90;10.10;;;16.40;78.50;;;;;;5035020;28;20169;-87
2021/10/20 09:15:32;;;;;;;12.13;10.00;;;16.40;79.00;;;;;;5017443;28;20169;-87
2021/10/20 09:18:05;;;;;;;12.55;10.85;;;16.40;78.50;;;;;;5035247;28;20205;-86
2021/10/20 09:20:37;;;;;;;12.68;10.52;;;16.40;78.70;;;;;;5035198;28;20185;-87
2021/10/20 09:23:03;;;;;;;12.90;9.88;;;16.40;78.80;;;;;;5017378;28;20549;-88
2021/10/20 09:25:35;;;;;;;18.80;10.43;;;16.30;79.40;;;;;;5017074;28;20191;-87
2021/10/20 09:28:01;;;;;;;11.43;9.43;;;16.30;79.10;;;;;;5016516;28;20193;-87
2021/10/20 09:30:29;;;;;;;13.57;8.35;;;16.30;79.20;;;;;;5016823;28;20177;-87
2021/10/20 09:32:58;;;;;;;15.90;9.45;;;16.30;78.60;;;;;;5034427;28;20645;-88
2021/10/20 09:35:26;;;;;;;13.60;8.13;;;16.30;78.70;;;;;;5034666;28;20235;-87
2021/10/20 09:37:58;;;;;;;15.95;10.57;;;16.30;78.60;;;;;;5016806;28;20201;-89
2021/10/20 09:40:25;;;;;;;11.27;8.98;;;16.40;78.30;;;;;;5017277;28;20596;-88
2021/10/20 09:42:53;;;;;;;15.35;10.18;;;16.40;78.30;;;;;;5034811;28;20691;-87
2021/10/20 09:45:21;;;;;;;14.02;8.63;;;16.30;78.90;;;;;;5034501;28;20169;-86
2021/10/20 09:47:48;;;;;;;16.88;10.88;;;16.50;78.10;;;;;;5033188;28;20413;-87
2021/10/20 09:50:14;;;;;;;16.40;9.18;;;16.40;78.50;;;;;;5016973;28;20173;-87
2021/10/20 09:52:51;;;;;;;12.73;9.57;;;16.40;78.70;;;;;;5034932;28;20177;-87
2021/10/20 09:55:25;;;;;;;15.77;9.75;;;16.40;79.10;;;;;;5017322;28;20180;-87
2021/10/20 09:58:14;;;;;;;14.60;10.30;;;16.40;79.50;;;;;;5035275;28;20636;-87
2021/10/20 10:00:41;;;;;;;12.77;7.82;;;16.40;79.30;;;;;;5034604;28;20185;-87
2021/10/20 10:03:06;;;;;;;12.38;7.68;;;16.50;78.90;;;;;;5016609;28;20270;-86
2021/10/20 10:05:32;;;;;;;12.90;8.55;;;16.50;78.30;;;;;;5016558;28;20172;-87
2021/10/20 10:07:59;;;;;;;17.08;8.65;;;16.60;78.40;;;;;;5016552;28;20224;-87
2021/10/20 10:10:25;;;;;;;9.05;8.15;;;16.60;78.60;;;;;;5034391;28;20231;-87
2021/10/20 10:13:13;;;;;;;11.10;8.20;;;16.60;78.90;;;;;;5016369;28;20181;-87
2021/10/20 10:15:40;;;;;;;13.38;9.38;;;16.50;78.80;;;;;;5016753;28;20164;-88
2021/10/20 10:18:09;;;;;;;8.57;7.28;;;16.40;79.80;;;;;;5016349;28;20311;-87
2021/10/20 10:20:41;;;;;;;12.02;7.43;;;16.50;79.20;;;;;;5034671;28;20215;-87
2021/10/20 10:23:20;;;;;;;15.95;8.88;;;16.40;80.10;;;;;;5016770;28;20283;-87
2021/10/20 10:25:55;;;;;;;8.57;6.47;;;16.40;79.70;;;;;;5016635;28;20161;-87
2021/10/20 10:28:24;;;;;;;14.27;9.55;;;16.40;80.00;;;;;;5016791;28;20188;-87
2021/10/20 10:31:05;;;;;;;17.77;9.90;;;16.20;82.10;;;;;;5016371;28;20172;-88
2021/10/20 10:33:33;;;;;;;16.85;9.73;;;16.00;83.30;;;;;;5016299;28;20234;-88
2021/10/20 10:36:10;;;;;;;15.15;9.98;;;15.90;83.90;;;;;;5016419;28;20173;-88
2021/10/20 10:38:40;;;;;;;10.93;7.72;;;15.90;83.10;;;;;;5033259;28;20188;-87
2021/10/20 10:41:26;;;;;;;15.35;9.63;;;15.90;82.70;;;;;;5015696;28;20180;-87
2021/10/20 10:44:04;;;;;;;10.82;7.88;;;16.00;82.70;;;;;;5016296;28;20207;-87
2021/10/20 10:46:35;;;;;;;11.07;8.98;;;16.10;82.60;;;;;;5016449;28;20192;-88
2021/10/20 10:49:20;;;;;;;13.75;7.80;;;16.00;82.70;;;;;;5015516;28;20200;-87
2021/10/20 10:52:03;;;;;;;12.38;9.73;;;16.20;82.40;;;;;;5016037;28;20231;-87
2021/10/20 10:54:39;;;;;;;9.35;8.35;;;16.30;82.40;;;;;;5015893;28;20188;-88
2021/10/20 10:57:15;;;;;;;9.63;7.88;;;16.30;82.10;;;;;;5016352;28;20180;-88
2021/10/20 11:00:03;;;;;;;11.18;7.75;;;16.30;82.30;;;;;;5033223;28;20181;-87
2021/10/20 11:02:40;;;;;;;7.72;5.95;;;16.20;82.80;;;;;;5015486;28;20211;-87
2021/10/20 11:05:08;;;;;;;9.95;7.20;;;16.30;82.00;;;;;;5033426;28;20244;-87
2021/10/20 11:07:35;;;;;;;14.30;8.25;;;16.30;82.00;;;;;;5015678;28;20184;-88
2021/10/20 11:10:02;;;;;;;11.00;8.25;;;16.30;82.60;;;;;;5016022;28;20173;-88
2021/10/20 11:12:27;;;;;;;9.35;7.03;;;16.30;82.40;;;;;;5033480;28;20169;-87
2021/10/20 11:14:55;;;;;;;9.93;7.85;;;16.30;82.30;;;;;;5015918;28;20740;-87
2021/10/20 11:17:22;;;;;;;11.18;7.65;;;16.20;82.70;;;;;;5015903;28;20596;-88
2021/10/20 11:19:48;;;;;;;12.98;9.07;;;16.20;83.00;;;;;;5015888;28;20212;-88
2021/10/20 11:22:21;;;;;;;12.55;9.07;;;16.20;83.30;;;;;;5033610;28;20197;-87
2021/10/20 11:24:49;;;;;;;10.93;8.13;;;16.20;83.00;;;;;;5034058;28;20173;-87
2021/10/20 11:27:16;;;;;;;11.13;8.23;;;16.20;83.10;;;;;;5016307;28;20705;-87
2021/10/20 11:29:43;;;;;;;8.60;7.70;;;16.20;82.70;;;;;;5033850;28;20184;-87
2021/10/20 11:32:11;;;;;;;8.60;6.90;;;16.20;82.50;;;;;;5033632;28;20184;-87
2021/10/20 11:34:38;;;;;;;11.55;7.75;;;16.20;82.70;;;;;;5016066;28;20200;-87
2021/10/20 11:37:05;;;;;;;11.48;7.35;;;16.20;82.30;;;;;;5033444;28;20200;-87
2021/10/20 11:39:31;;;;;;;9.60;8.00;;;16.30;82.70;;;;;;5015812;28;20196;-87
2021/10/20 11:42:00;;;;;;;10.07;7.07;;;16.30;82.80;;;;;;5034248;28;20248;-88
2021/10/20 11:44:30;;;;;;;9.10;6.25;;;16.30;82.50;;;;;;5034145;28;20177;-87
2021/10/20 11:47:02;;;;;;;12.43;6.55;;;16.30;82.40;;;;;;5033990;28;20163;-87
2021/10/20 11:49:28;;;;;;;16.50;7.85;;;16.60;81.40;;;;;;5033793;28;20280;-87
2021/10/20 11:51:55;;;;;;;8.27;6.40;;;16.60;81.70;;;;;;5019071;28;20208;-89
2021/10/20 11:54:25;;;;;;;11.27;8.07;;;16.70;81.80;;;;;;5019302;28;20204;-87
2021/10/20 11:56:51;;;;;;;11.70;6.95;;;16.70;81.40;;;;;;5037445;28;20157;-89
2021/10/20 11:59:26;;;;;;;12.35;7.20;;;16.80;81.10;;;;;;5018989;28;20283;-88
2021/10/20 12:01:52;;;;;;;13.80;6.78;;;16.80;81.30;;;;;;5018989;28;20231;-87
2021/10/20 12:04:20;;;;;;;10.25;8.18;;;17.00;80.20;;;;;;5018870;28;20169;-88
2021/10/20 12:06:56;;;;;;;16.17;8.57;;;17.00;80.90;;;;;;5019256;28;20222;-88
2021/10/20 12:09:23;;;;;;;8.90;7.95;;;16.90;81.60;;;;;;5018959;28;20234;-89
2021/10/20 12:11:50;;;;;;;10.90;7.00;;;16.90;81.40;;;;;;5037157;28;20153;-86
2021/10/20 12:14:17;;;;;;;9.18;5.90;;;17.00;80.60;;;;;;5019041;28;20187;-87
2021/10/20 12:16:44;;;;;;;10.20;8.05;;;17.00;80.60;;;;;;5018972;28;20217;-87
2021/10/20 12:19:11;;;;;;;8.95;7.80;;;17.00;80.90;;;;;;5018484;28;20211;-88
2021/10/20 12:21:39;;;;;;;12.02;7.35;;;17.00;80.80;;;;;;5018704;28;20173;-86
2021/10/20 12:24:06;;;;;;;10.77;8.13;;;17.00;81.10;;;;;;5036633;28;20172;-87
2021/10/20 12:26:36;;;;;;;10.27;7.85;;;17.00;81.40;;;;;;5018107;28;20188;-88
2021/10/20 12:29:07;;;;;;;10.25;7.80;;;17.00;81.50;;;;;;5017909;28;20692;-88
2021/10/20 12:31:35;;;;;;;12.85;9.07;;;17.00;81.80;;;;;;5018485;28;20187;-88
2021/10/20 12:34:02;;;;;;;9.40;7.80;;;17.00;82.10;;;;;;5035930;28;20533;-88
2021/10/20 12:36:30;;;;;;;8.40;6.57;;;17.00;82.10;;;;;;5018310;28;20268;-88